createdAt,value
2018-06-19T00:01:31.477Z,98348.61
2018-06-19T00:03:59.031Z,98346.86
2018-06-19T00:06:26.617Z,98353.28
2018-06-19T00:08:54.161Z,98353.05
2018-06-19T00:11:21.750Z,98351.94
2018-06-19T00:13:49.321Z,98347.98
2018-06-19T00:16:16.899Z,98351.02
2018-06-19T00:18:51.794Z,98353.44
2018-06-19T00:21:40.335Z,98351.55
2018-06-19T00:24:07.895Z,98351.20
2018-06-19T00:26:35.432Z,98352.25
2018-06-19T00:29:02.954Z,98356.34
2018-06-19T00:31:30.555Z,98353.91
2018-06-19T00:33:58.089Z,98358.03
2018-06-19T00:36:25.610Z,98358.03
2018-06-19T00:38:53.154Z,98359.08
2018-06-19T00:41:20.708Z,98357.84
2018-06-19T00:43:48.258Z,98362.46
2018-06-19T00:46:17.052Z,98359.83
2018-06-19T00:48:44.566Z,98358.52
2018-06-19T00:51:12.087Z,98361.10
2018-06-19T00:53:39.631Z,98366.45
2018-06-19T00:56:18.381Z,98368.77
2018-06-19T00:58:46.137Z,98368.61
2018-06-19T01:01:13.784Z,98368.49
2018-06-19T01:03:41.326Z,98367.97
2018-06-19T01:06:09.056Z,98367.47
2018-06-19T01:08:36.698Z,98364.14
2018-06-19T01:11:04.258Z,98371.83
2018-06-19T01:13:31.818Z,98375.17
2018-06-19T01:15:59.390Z,98379.13
2018-06-19T01:18:26.944Z,98375.82
2018-06-19T01:20:54.491Z,98375.94
2018-06-19T01:23:22.239Z,98378.64
2018-06-19T01:25:49.784Z,98373.26
2018-06-19T01:28:17.327Z,98374.16
2018-06-19T01:30:44.887Z,98373.02
2018-06-19T01:33:12.407Z,98370.33
2018-06-19T01:35:39.947Z,98376.97
2018-06-19T01:38:07.587Z,98370.86
2018-06-19T01:40:35.050Z,98375.44
2018-06-19T01:43:02.563Z,98377.75
2018-06-19T01:45:30.098Z,98374.05
2018-06-19T01:47:57.722Z,98377.86
2018-06-19T01:50:25.244Z,98379.79
2018-06-19T01:52:52.838Z,98379.91
2018-06-19T01:55:20.611Z,98376.36
2018-06-19T01:57:49.139Z,98380.30
2018-06-19T02:00:16.711Z,98376.22
2018-06-19T02:02:44.270Z,98378.39
2018-06-19T02:05:11.835Z,98374.41
2018-06-19T02:07:39.491Z,98377.75
2018-06-19T02:10:07.063Z,98377.12
2018-06-19T02:12:34.575Z,98376.99
2018-06-19T02:15:02.144Z,98378.75
2018-06-19T02:17:29.662Z,98376.22
2018-06-19T02:19:57.337Z,98377.76
2018-06-19T02:22:24.879Z,98382.83
2018-06-19T02:24:52.446Z,98373.28
2018-06-19T02:27:19.974Z,98368.30
2018-06-19T02:29:47.670Z,98361.16
2018-06-19T02:32:15.214Z,98366.64
2018-06-19T02:34:42.738Z,98366.64
2018-06-19T02:37:10.314Z,98372.16
2018-06-19T02:39:37.830Z,98361.58
2018-06-19T02:42:05.457Z,98373.16
2018-06-19T02:44:32.987Z,98375.97
2018-06-19T02:47:00.531Z,98369.98
2018-06-19T02:49:28.063Z,98376.73
2018-06-19T02:51:55.567Z,98382.47
2018-06-19T02:54:23.121Z,98375.97
2018-06-19T02:56:50.645Z,98368.19
2018-06-19T02:59:18.208Z,98382.58
2018-06-19T03:01:45.767Z,98376.09
2018-06-19T03:04:13.310Z,98379.27
2018-06-19T03:06:40.842Z,98377.10
2018-06-19T03:09:09.620Z,98373.92
2018-06-19T03:11:37.282Z,98374.69
2018-06-19T03:14:04.987Z,98372.39
2018-06-19T03:16:32.540Z,98373.02
2018-06-19T03:19:00.087Z,98370.48
2018-06-19T03:21:27.672Z,98371.13
2018-06-19T03:23:55.838Z,98375.47
2018-06-19T03:26:23.374Z,98375.06
2018-06-19T03:28:50.891Z,98376.59
2018-06-19T03:31:18.442Z,98369.72
2018-06-19T03:33:45.994Z,98375.69
2018-06-19T03:36:13.554Z,98378.00
2018-06-19T03:38:41.082Z,98377.36
2018-06-19T03:41:08.591Z,98378.63
2018-06-19T03:43:36.144Z,98378.13
2018-06-19T03:46:03.838Z,98381.70
2018-06-19T03:48:31.388Z,98382.33
2018-06-19T03:50:58.946Z,98381.69
2018-06-19T03:53:26.490Z,98385.90
2018-06-19T03:55:54.011Z,98385.63
2018-06-19T03:58:21.553Z,98386.03
2018-06-19T04:00:49.069Z,98385.65
2018-06-19T04:03:16.596Z,98386.92
2018-06-19T04:05:44.135Z,98387.43
2018-06-19T04:08:11.655Z,98379.02
2018-06-19T04:10:39.188Z,98388.83
2018-06-19T04:13:06.699Z,98384.74
2018-06-19T04:15:34.243Z,98387.80
2018-06-19T04:18:01.782Z,98390.83
2018-06-19T04:20:29.338Z,98391.73
2018-06-19T04:22:56.881Z,98390.70
2018-06-19T04:25:24.398Z,98394.26
2018-06-19T04:27:51.919Z,98387.77
2018-06-19T04:30:19.467Z,98391.97
2018-06-19T04:32:47.016Z,98396.05
2018-06-19T04:35:14.534Z,98393.37
2018-06-19T04:37:42.070Z,98391.55
2018-06-19T04:40:09.595Z,98393.22
2018-06-19T04:42:37.146Z,98385.43
2018-06-19T04:45:04.890Z,98383.78
2018-06-19T04:47:32.391Z,98390.36
2018-06-19T04:49:59.911Z,98385.63
2018-06-19T04:52:27.422Z,98381.01
2018-06-19T04:54:54.978Z,98389.41
2018-06-19T04:57:22.558Z,98396.41
2018-06-19T04:59:50.109Z,98395.97
2018-06-19T05:02:17.655Z,98395.23
2018-06-19T05:04:45.196Z,98399.95
2018-06-19T05:07:12.766Z,98398.52
2018-06-19T05:09:40.317Z,98404.02
2018-06-19T05:12:07.905Z,98403.69
2018-06-19T05:14:35.419Z,98407.17
2018-06-19T05:17:03.012Z,98406.20
2018-06-19T05:19:30.611Z,98406.33
2018-06-19T05:21:58.165Z,98406.92
2018-06-19T05:24:25.691Z,98397.84
2018-06-19T05:26:53.235Z,98409.02
2018-06-19T05:29:20.811Z,98411.66
2018-06-19T05:31:48.370Z,98416.55
2018-06-19T05:34:15.878Z,98414.12
2018-06-19T05:36:43.404Z,98409.70
2018-06-19T05:39:11.468Z,98404.66
2018-06-19T05:41:39.319Z,98413.60
2018-06-19T05:44:07.702Z,98415.48
2018-06-19T05:46:35.863Z,98421.32
2018-06-19T05:49:03.571Z,98426.81
2018-06-19T05:51:31.115Z,98424.59
2018-06-19T05:53:59.111Z,98427.00
2018-06-19T05:56:26.630Z,98423.80
2018-06-19T05:58:54.178Z,98434.49
2018-06-19T06:01:21.723Z,98431.16
2018-06-19T06:03:49.269Z,98439.92
2018-06-19T06:06:16.816Z,98447.05
2018-06-19T06:08:44.666Z,98451.08
2018-06-19T06:11:12.298Z,98451.41
2018-06-19T06:13:39.825Z,98461.08
2018-06-19T06:16:07.400Z,98446.58
2018-06-19T06:18:34.939Z,98457.34
2018-06-19T06:21:02.531Z,98459.27
2018-06-19T06:23:30.084Z,98457.97
2018-06-19T06:25:57.627Z,98461.20
2018-06-19T06:28:25.180Z,98466.95
2018-06-19T06:30:52.719Z,98467.13
2018-06-19T06:33:20.252Z,98460.45
2018-06-19T06:35:47.805Z,98468.45
2018-06-19T06:38:15.355Z,98462.13
2018-06-19T06:40:42.883Z,98471.97
2018-06-19T06:43:10.452Z,98467.92
2018-06-19T06:45:38.011Z,98467.58
2018-06-19T06:48:05.543Z,98467.77
2018-06-19T06:50:33.119Z,98472.22
2018-06-19T06:53:00.668Z,98470.86
2018-06-19T06:55:28.220Z,98472.11
2018-06-19T06:57:55.752Z,98474.66
2018-06-19T07:00:23.333Z,98483.13
2018-06-19T07:02:50.851Z,98481.25
2018-06-19T07:05:18.411Z,98486.78
2018-06-19T07:07:46.031Z,98494.91
2018-06-19T07:10:13.584Z,98494.44
2018-06-19T07:12:41.151Z,98489.23
2018-06-19T07:15:08.691Z,98492.17
2018-06-19T07:17:36.259Z,98490.41
2018-06-19T07:20:04.005Z,98492.84
2018-06-19T07:22:31.627Z,98494.41
2018-06-19T07:24:59.120Z,98492.09
2018-06-19T07:27:26.681Z,98503.35
2018-06-19T07:29:54.199Z,98496.47
2018-06-19T07:32:21.765Z,98495.25
2018-06-19T07:34:49.329Z,98495.38
2018-06-19T07:37:16.875Z,98495.16
2018-06-19T07:39:44.496Z,98489.86
2018-06-19T07:42:12.054Z,98497.39
2018-06-19T07:44:39.755Z,98497.31
2018-06-19T07:47:07.286Z,98494.85
2018-06-19T07:49:34.877Z,98488.19
2018-06-19T07:52:02.406Z,98493.19
2018-06-19T07:54:29.943Z,98496.69
2018-06-19T07:56:57.514Z,98490.86
2018-06-19T07:59:25.022Z,98491.94
2018-06-19T08:01:52.563Z,98496.16
2018-06-19T08:04:20.087Z,98497.55
2018-06-19T08:06:47.637Z,98492.87
2018-06-19T08:09:15.174Z,98496.23
2018-06-19T08:11:42.725Z,98491.27
2018-06-19T08:14:10.267Z,98494.05
2018-06-19T08:16:37.866Z,98490.83
2018-06-19T08:19:05.420Z,98492.59
2018-06-19T08:21:32.949Z,98489.12
2018-06-19T08:24:00.490Z,98490.59
2018-06-19T08:26:28.026Z,98492.10
2018-06-19T08:28:55.559Z,98489.03
2018-06-19T08:31:23.106Z,98495.97
2018-06-19T08:33:50.649Z,98494.27
2018-06-19T08:36:18.227Z,98495.98
2018-06-19T08:38:45.775Z,98500.95
2018-06-19T08:41:13.290Z,98495.25
2018-06-19T08:43:40.835Z,98495.37
2018-06-19T08:46:08.398Z,98494.93
2018-06-19T08:48:35.920Z,98494.56
2018-06-19T08:51:03.470Z,98489.11
2018-06-19T08:53:31.014Z,98489.33
2018-06-19T08:55:58.576Z,98489.02
2018-06-19T08:58:26.113Z,98490.48
2018-06-19T09:00:53.687Z,98486.59
2018-06-19T09:03:21.245Z,98490.02
2018-06-19T09:05:48.908Z,98485.64
2018-06-19T09:08:16.515Z,98487.82
2018-06-19T09:10:44.113Z,98492.57
2018-06-19T09:13:11.675Z,98485.73
2018-06-19T09:15:39.303Z,98483.91
2018-06-19T09:18:06.872Z,98488.84
2018-06-19T09:20:34.499Z,98484.87
2018-06-19T09:23:02.075Z,98480.33
2018-06-19T09:25:29.603Z,98491.09
2018-06-19T09:27:57.166Z,98485.09
2018-06-19T09:30:24.703Z,98479.62
2018-06-19T09:32:52.326Z,98488.19
2018-06-19T09:35:19.871Z,98496.56
2018-06-19T09:37:47.415Z,98495.33
2018-06-19T09:40:14.963Z,98489.11
2018-06-19T09:42:43.126Z,98482.36
2018-06-19T09:45:10.695Z,98482.08
2018-06-19T09:47:38.223Z,98484.23
2018-06-19T09:50:05.821Z,98485.05
2018-06-19T09:52:33.489Z,98484.05
2018-06-19T09:55:01.285Z,98484.03
2018-06-19T09:57:29.167Z,98480.53
2018-06-19T09:59:56.779Z,98481.59
2018-06-19T10:02:24.338Z,98474.70
2018-06-19T10:04:52.054Z,98480.44
2018-06-19T10:07:21.223Z,98485.42
2018-06-19T10:09:50.678Z,98482.64
2018-06-19T10:12:18.299Z,98476.42
2018-06-19T10:14:45.883Z,98479.73
2018-06-19T10:17:13.451Z,98481.95
2018-06-19T10:19:41.024Z,98475.54
2018-06-19T10:22:08.614Z,98476.71
2018-06-19T10:24:36.159Z,98482.61
2018-06-19T10:27:03.737Z,98476.38
2018-06-19T10:29:31.338Z,98471.60
2018-06-19T10:31:58.842Z,98469.91
2018-06-19T10:34:26.447Z,98463.91
2018-06-19T10:36:54.164Z,98467.31
2018-06-19T10:39:21.780Z,98464.41
2018-06-19T10:41:49.402Z,98465.62
2018-06-19T10:44:16.943Z,98459.78
2018-06-19T10:46:44.504Z,98456.44
2018-06-19T10:49:12.046Z,98467.02
2018-06-19T10:51:39.600Z,98465.94
2018-06-19T10:54:07.162Z,98471.11
2018-06-19T10:56:41.462Z,98462.84
2018-06-19T10:59:08.998Z,98470.69
2018-06-19T11:01:36.606Z,98477.59
2018-06-19T11:04:04.158Z,98460.98
2018-06-19T11:06:31.707Z,98469.14
2018-06-19T11:08:59.367Z,98468.32
2018-06-19T11:11:26.919Z,98467.31
2018-06-19T11:13:54.515Z,98465.08
2018-06-19T11:16:22.147Z,98467.92
2018-06-19T11:18:49.715Z,98473.05
2018-06-19T11:21:17.329Z,98473.20
2018-06-19T11:23:44.906Z,98480.45
2018-06-19T11:26:12.996Z,98469.96
2018-06-19T11:28:40.595Z,98471.64
2018-06-19T11:31:08.150Z,98462.59
2018-06-19T11:33:35.709Z,98469.84
2018-06-19T11:36:03.280Z,98463.27
2018-06-19T11:38:30.895Z,98463.59
2018-06-19T11:40:58.452Z,98463.30
2018-06-19T11:43:25.979Z,98456.59
2018-06-19T11:45:53.568Z,98464.57
2018-06-19T11:48:21.115Z,98455.66
2018-06-19T11:50:48.685Z,98456.59
2018-06-19T11:53:16.211Z,98468.91
2018-06-19T11:55:43.885Z,98461.28
2018-06-19T11:58:11.478Z,98457.45
2018-06-19T12:00:38.997Z,98456.81
2018-06-19T12:03:06.618Z,98454.95
2018-06-19T12:05:34.238Z,98458.36
2018-06-19T12:08:01.808Z,98464.20
2018-06-19T12:10:29.370Z,98468.45
2018-06-19T12:12:56.970Z,98467.81
2018-06-19T12:15:24.489Z,98475.55
2018-06-19T12:17:52.010Z,98469.28
2018-06-19T12:20:19.601Z,98479.91
2018-06-19T12:22:47.139Z,98473.75
2018-06-19T12:25:14.749Z,98476.95
2018-06-19T12:27:42.362Z,98482.26
2018-06-19T12:30:09.945Z,98480.53
2018-06-19T12:32:37.524Z,98472.20
2018-06-19T12:35:05.081Z,98485.79
2018-06-19T12:37:32.652Z,98476.14
2018-06-19T12:40:00.203Z,98486.98
2018-06-19T12:42:27.750Z,98476.87
2018-06-19T12:44:55.275Z,98480.16
2018-06-19T12:47:22.863Z,98485.20
2018-06-19T12:50:35.031Z,98485.56
2018-06-19T12:53:14.540Z,98483.32
2018-06-19T12:55:53.690Z,98485.12
2018-06-19T12:58:21.275Z,98485.08
2018-06-19T13:00:48.848Z,98482.13
2018-06-19T13:03:27.614Z,98478.96
2018-06-19T13:06:06.992Z,98480.58
2018-06-19T13:08:34.858Z,98479.41
2018-06-19T13:11:03.243Z,98483.80
2018-06-19T13:13:41.943Z,98483.67
2018-06-19T13:16:20.853Z,98484.68
2018-06-19T13:18:59.638Z,98482.05
2018-06-19T13:21:27.202Z,98477.97
2018-06-19T13:23:54.770Z,98475.23
2018-06-19T13:26:22.354Z,98474.60
2018-06-19T13:30:00.896Z,98477.24
2018-06-19T13:32:29.067Z,98475.92
2018-06-19T13:34:56.606Z,98475.86
2018-06-19T13:37:24.167Z,98479.08
2018-06-19T13:41:39.335Z,98477.66
2018-06-19T13:44:18.189Z,98481.98
2018-06-19T13:46:45.743Z,98477.06
2018-06-19T13:49:13.290Z,98476.72
2018-06-19T13:51:40.822Z,98473.59
2018-06-19T13:54:08.384Z,98467.70
2018-06-19T13:57:22.875Z,98466.21
2018-06-19T13:59:50.431Z,98469.34
2018-06-19T14:02:18.286Z,98472.28
2018-06-19T14:04:45.868Z,98473.18
2018-06-19T14:07:13.519Z,98473.47
2018-06-19T14:09:52.320Z,98467.69
2018-06-19T14:12:29.291Z,98468.63
2018-06-19T14:14:56.895Z,98465.79
2018-06-19T14:17:25.118Z,98463.90
2018-06-19T14:19:53.638Z,98468.66
2018-06-19T14:22:21.188Z,98455.70
2018-06-19T14:24:48.820Z,98458.58
2018-06-19T14:27:16.406Z,98461.03
2018-06-19T14:29:43.942Z,98451.20
2018-06-19T14:32:11.497Z,98454.70
2018-06-19T14:34:39.064Z,98460.54
2018-06-19T14:37:06.626Z,98460.47
2018-06-19T14:39:34.165Z,98453.33
2018-06-19T14:42:02.193Z,98458.34
2018-06-19T14:44:29.758Z,98463.91
2018-06-19T14:46:57.313Z,98455.20
2018-06-19T14:49:24.865Z,98453.70
2018-06-19T14:51:52.989Z,98457.25
2018-06-19T14:54:20.575Z,98451.59
2018-06-19T14:56:48.226Z,98456.37
2018-06-19T14:59:15.812Z,98463.15
2018-06-19T15:01:43.361Z,98458.08
2018-06-19T15:04:11.215Z,98459.48
2018-06-19T15:06:38.787Z,98462.64
2018-06-19T15:09:09.498Z,98456.96
2018-06-19T15:11:37.078Z,98461.61
2018-06-19T15:14:05.299Z,98461.77
2018-06-19T15:16:33.295Z,98454.70
2018-06-19T15:19:00.909Z,98460.56
2018-06-19T15:21:28.505Z,98463.64
2018-06-19T15:23:56.046Z,98462.64
2018-06-19T15:26:23.662Z,98460.63
2018-06-19T15:28:51.206Z,98467.14
2018-06-19T15:31:18.793Z,98465.91
2018-06-19T15:33:46.421Z,98466.67
2018-06-19T15:36:14.187Z,98462.52
2018-06-19T15:38:41.774Z,98461.84
2018-06-19T15:41:09.341Z,98461.94
2018-06-19T15:43:36.953Z,98461.23
2018-06-19T15:46:04.562Z,98457.12
2018-06-19T15:48:32.173Z,98458.16
2018-06-19T15:50:59.747Z,98460.34
2018-06-19T15:53:27.311Z,98462.31
2018-06-19T15:55:54.918Z,98464.78
2018-06-19T15:58:22.466Z,98469.80
2018-06-19T16:00:50.070Z,98467.89
2018-06-19T16:03:17.685Z,98472.97
2018-06-19T16:05:45.354Z,98469.31
2018-06-19T16:08:17.736Z,98465.17
2018-06-19T16:10:46.650Z,98470.38
2018-06-19T16:13:14.215Z,98471.49
2018-06-19T16:15:42.135Z,98474.77
2018-06-19T16:18:09.742Z,98477.73
2018-06-19T16:20:37.395Z,98479.56
2018-06-19T16:23:04.963Z,98474.39
2018-06-19T16:25:32.595Z,98477.98
2018-06-19T16:28:00.174Z,98480.23
2018-06-19T16:30:27.962Z,98476.31
2018-06-19T16:32:55.524Z,98477.16
2018-06-19T16:35:23.193Z,98474.32
2018-06-19T16:37:51.448Z,98477.21
2018-06-19T16:40:19.044Z,98482.80
2018-06-19T16:42:46.747Z,98475.87
2018-06-19T16:45:14.530Z,98491.57
2018-06-19T16:47:42.205Z,98487.87
2018-06-19T16:50:09.935Z,98482.50
2018-06-19T16:52:37.694Z,98489.08
2018-06-19T16:55:06.099Z,98490.50
2018-06-19T16:57:34.243Z,98488.57
2018-06-19T17:00:02.587Z,98489.38
2018-06-19T17:02:30.286Z,98486.44
2018-06-19T17:04:57.894Z,98490.38
2018-06-19T17:07:25.745Z,98497.66
2018-06-19T17:09:53.558Z,98496.62
2018-06-19T17:12:21.334Z,98492.92
2018-06-19T17:14:49.235Z,98487.34
2018-06-19T17:17:17.076Z,98492.41
2018-06-19T17:19:45.029Z,98490.98
2018-06-19T17:22:12.687Z,98493.09
2018-06-19T17:24:40.433Z,98489.50
2018-06-19T17:27:08.106Z,98489.39
2018-06-19T17:29:35.876Z,98493.66
2018-06-19T17:32:03.672Z,98491.86
2018-06-19T17:34:31.462Z,98493.41
2018-06-19T17:36:59.268Z,98497.01
2018-06-19T17:39:27.048Z,98492.55
2018-06-19T17:41:54.750Z,98496.16
2018-06-19T17:44:22.523Z,98501.30
2018-06-19T17:46:50.248Z,98495.34
2018-06-19T17:49:19.234Z,98497.50
2018-06-19T17:51:47.021Z,98494.22
2018-06-19T17:54:14.710Z,98494.20
2018-06-19T17:56:42.426Z,98501.11
2018-06-19T17:59:10.094Z,98501.99
2018-06-19T18:01:37.872Z,98500.07
2018-06-19T18:04:05.626Z,98494.55
2018-06-19T18:06:33.368Z,98500.22
2018-06-19T18:09:01.673Z,98504.00
2018-06-19T18:11:29.487Z,98496.97
2018-06-19T18:13:57.370Z,98494.35
2018-06-19T18:16:25.192Z,98496.64
2018-06-19T18:18:52.958Z,98501.88
2018-06-19T18:21:20.600Z,98496.95
2018-06-19T18:23:48.350Z,98498.06
2018-06-19T18:26:15.953Z,98500.47
2018-06-19T18:28:43.682Z,98499.39
2018-06-19T18:31:12.552Z,98499.47
2018-06-19T18:33:40.169Z,98507.53
2018-06-19T18:36:07.983Z,98497.49
2018-06-19T18:38:35.692Z,98497.72
2018-06-19T18:41:03.560Z,98499.78
2018-06-19T18:43:31.357Z,98500.23
2018-06-19T18:45:59.307Z,98495.11
2018-06-19T18:48:27.258Z,98492.52
2018-06-19T18:50:54.970Z,98498.36
2018-06-19T18:53:22.749Z,98501.30
2018-06-19T18:55:50.502Z,98504.25
2018-06-19T18:58:18.075Z,98504.89
2018-06-19T19:00:45.666Z,98500.77
2018-06-19T19:03:13.296Z,98506.95
2018-06-19T19:05:40.989Z,98503.27
2018-06-19T19:08:13.159Z,98508.57
2018-06-19T19:10:46.426Z,98512.61
2018-06-19T19:13:14.138Z,98508.45
2018-06-19T19:15:47.204Z,98512.48
2018-06-19T19:18:20.504Z,98511.19
2018-06-19T19:20:48.211Z,98510.82
2018-06-19T19:23:15.921Z,98514.84
2018-06-19T19:25:43.571Z,98519.17
2018-06-19T19:30:19.775Z,98521.02
2018-06-19T19:32:47.499Z,98529.94
2018-06-19T19:35:16.260Z,98529.62
2018-06-19T19:37:49.541Z,98531.70
2018-06-19T19:40:17.349Z,98537.86
2018-06-19T19:42:45.858Z,98541.12
2018-06-19T19:45:14.513Z,98545.25
2018-06-19T19:47:47.743Z,98544.60
2018-06-19T19:50:15.456Z,98554.31
2018-06-19T19:52:43.161Z,98552.76
2018-06-19T19:55:10.728Z,98546.78
2018-06-19T19:57:44.014Z,98550.67
2018-06-19T20:00:16.173Z,98552.84
2018-06-19T20:02:43.789Z,98558.52
2018-06-19T20:05:11.607Z,98559.29
2018-06-19T20:07:40.651Z,98560.47
2018-06-19T20:10:08.330Z,98560.70
2018-06-19T20:12:36.066Z,98566.47
2018-06-19T20:15:04.167Z,98572.12
2018-06-19T20:17:31.815Z,98566.79
2018-06-19T20:19:59.596Z,98576.70
2018-06-19T20:22:27.369Z,98570.73
2018-06-19T20:24:55.081Z,98568.44
2018-06-19T20:27:22.680Z,98579.09
2018-06-19T20:29:50.260Z,98573.32
2018-06-19T20:32:17.949Z,98575.91
2018-06-19T20:34:45.601Z,98574.50
2018-06-19T20:37:13.180Z,98576.03
2018-06-19T20:39:40.727Z,98567.44
2018-06-19T20:42:08.290Z,98572.85
2018-06-19T20:44:36.092Z,98572.94
2018-06-19T20:47:03.690Z,98574.72
2018-06-19T20:49:31.211Z,98586.09
2018-06-19T20:51:58.727Z,98582.19
2018-06-19T20:54:26.282Z,98584.64
2018-06-19T20:56:53.838Z,98585.49
2018-06-19T20:59:21.423Z,98580.36
2018-06-19T21:01:48.960Z,98592.89
2018-06-19T21:04:17.022Z,98588.73
2018-06-19T21:06:44.544Z,98587.77
2018-06-19T21:09:12.110Z,98594.38
2018-06-19T21:11:39.788Z,98590.73
2018-06-19T21:14:07.471Z,98595.46
2018-06-19T21:16:35.011Z,98591.58
2018-06-19T21:19:02.572Z,98599.80
2018-06-19T21:21:30.259Z,98594.40
2018-06-19T21:23:57.883Z,98598.99
2018-06-19T21:26:25.515Z,98595.47
2018-06-19T21:28:53.055Z,98593.56
2018-06-19T21:31:20.595Z,98596.74
2018-06-19T21:33:48.163Z,98594.89
2018-06-19T21:36:15.687Z,98590.72
2018-06-19T21:38:43.242Z,98592.81
2018-06-19T21:41:10.750Z,98596.20
2018-06-19T21:43:38.370Z,98592.02
2018-06-19T21:46:05.998Z,98592.59
2018-06-19T21:48:33.579Z,98589.81
2018-06-19T21:51:01.143Z,98589.09
2018-06-19T21:53:28.669Z,98584.40
2018-06-19T21:55:56.486Z,98586.62
2018-06-19T21:58:24.000Z,98587.94
2018-06-19T22:00:51.552Z,98587.98
2018-06-19T22:03:19.076Z,98590.83
2018-06-19T22:05:47.427Z,98591.34
2018-06-19T22:08:14.979Z,98590.84
2018-06-19T22:10:42.507Z,98589.56
2018-06-19T22:13:10.371Z,98588.45
2018-06-19T22:15:38.086Z,98585.25
2018-06-19T22:18:05.643Z,98588.09
2018-06-19T22:20:33.215Z,98593.25
2018-06-19T22:23:00.767Z,98588.41
2018-06-19T22:25:28.323Z,98593.02
2018-06-19T22:27:55.862Z,98591.39
2018-06-19T22:30:23.388Z,98598.32
2018-06-19T22:32:50.962Z,98595.77
2018-06-19T22:35:18.497Z,98603.33
2018-06-19T22:37:46.057Z,98606.27
2018-06-19T22:40:13.620Z,98606.94
2018-06-19T22:42:41.206Z,98605.17
2018-06-19T22:45:08.808Z,98603.50
2018-06-19T22:47:36.335Z,98616.03
2018-06-19T22:50:03.930Z,98607.61
2018-06-19T22:52:31.475Z,98611.34
2018-06-19T22:54:59.019Z,98611.72
2018-06-19T22:57:26.559Z,98613.14
2018-06-19T22:59:54.091Z,98616.23
2018-06-19T23:02:21.675Z,98622.09
2018-06-19T23:04:49.235Z,98616.49
2018-06-19T23:07:16.842Z,98611.88
2018-06-19T23:09:44.351Z,98615.97
2018-06-19T23:12:11.943Z,98617.14
2018-06-19T23:14:39.475Z,98625.44
2018-06-19T23:17:07.088Z,98618.92
2018-06-19T23:19:34.699Z,98618.79
2018-06-19T23:22:02.249Z,98618.93
2018-06-19T23:24:29.790Z,98618.30
2018-06-19T23:26:57.345Z,98619.08
2018-06-19T23:29:24.882Z,98622.13
2018-06-19T23:31:52.551Z,98626.75
2018-06-19T23:34:20.093Z,98624.95
2018-06-19T23:36:47.631Z,98619.20
2018-06-19T23:39:15.196Z,98616.02
2018-06-19T23:41:42.781Z,98624.19
2018-06-19T23:44:10.326Z,98618.70
2018-06-19T23:46:37.982Z,98618.84
2018-06-19T23:49:05.624Z,98622.78
2018-06-19T23:51:33.243Z,98617.94
2018-06-19T23:54:00.763Z,98619.84
2018-06-19T23:56:28.310Z,98617.17
2018-06-19T23:58:55.833Z,98626.77
